sensor_id;sensor_type;location;lat;lon;timestamp;pressure;altitude;pressure_sealevel;temperature;humidity
74790;BME280;63318;52.406;13.416;2024-03-23T00:56:09;100462.85;;;8.07;86.33
74790;BME280;63318;52.406;13.416;2024-03-23T00:58:39;100469.88;;;8.06;86.57
74790;BME280;63318;52.406;13.416;2024-03-23T01:01:09;100469.76;;;8.05;86.43
74790;BME280;63318;52.406;13.416;2024-03-23T01:03:39;100464.32;;;8.03;86.53
74790;BME280;63318;52.406;13.416;2024-03-23T01:06:09;100461.33;;;8.02;86.60
74790;BME280;63318;52.406;13.416;2024-03-23T01:08:39;100465.03;;;8.01;86.82
74790;BME280;63318;52.406;13.416;2024-03-23T01:11:08;100457.50;;;8.00;86.75
74790;BME280;63318;52.406;13.416;2024-03-23T01:13:39;100455.98;;;7.99;86.75
74790;BME280;63318;52.406;13.416;2024-03-23T01:16:08;100451.39;;;7.98;86.55
74790;BME280;63318;52.406;13.416;2024-03-23T01:18:38;100452.33;;;7.97;86.70
74790;BME280;63318;52.406;13.416;2024-03-23T01:21:08;100456.24;;;7.96;86.65
74790;BME280;63318;52.406;13.416;2024-03-23T01:23:38;100456.83;;;7.94;86.51
74790;BME280;63318;52.406;13.416;2024-03-23T01:26:08;100452.84;;;7.93;86.67
74790;BME280;63318;52.406;13.416;2024-03-23T01:28:38;100447.13;;;7.92;86.74
74790;BME280;63318;52.406;13.416;2024-03-23T01:31:08;100439.44;;;7.92;86.73
74790;BME280;63318;52.406;13.416;2024-03-23T01:33:39;100428.21;;;7.91;86.64
74790;BME280;63318;52.406;13.416;2024-03-23T01:36:09;100418.58;;;7.90;86.89
74790;BME280;63318;52.406;13.416;2024-03-23T01:38:38;100414.10;;;7.89;86.72
74790;BME280;63318;52.406;13.416;2024-03-23T01:41:08;100406.72;;;7.88;86.75
74790;BME280;63318;52.406;13.416;2024-03-23T01:43:38;100395.61;;;7.87;86.93
74790;BME280;63318;52.406;13.416;2024-03-23T01:46:10;100388.75;;;7.87;87.16
74790;BME280;63318;52.406;13.416;2024-03-23T01:48:40;100387.36;;;7.86;87.03
74790;BME280;63318;52.406;13.416;2024-03-23T01:51:10;100386.90;;;7.85;86.96
74790;BME280;63318;52.406;13.416;2024-03-23T01:53:40;100393.04;;;7.84;86.94
74790;BME280;63318;52.406;13.416;2024-03-23T01:56:11;100392.77;;;7.84;86.85
74790;BME280;63318;52.406;13.416;2024-03-23T01:58:42;100398.45;;;7.83;87.07
74790;BME280;63318;52.406;13.416;2024-03-23T02:01:12;100395.56;;;7.82;86.82
74790;BME280;63318;52.406;13.416;2024-03-23T02:03:42;100391.36;;;7.82;87.08
74790;BME280;63318;52.406;13.416;2024-03-23T02:06:12;100395.45;;;7.82;86.72
74790;BME280;63318;52.406;13.416;2024-03-23T02:08:43;100391.34;;;7.81;87.05
74790;BME280;63318;52.406;13.416;2024-03-23T02:11:14;100401.80;;;7.80;87.21
74790;BME280;63318;52.406;13.416;2024-03-23T02:13:44;100399.10;;;7.80;87.15
74790;BME280;63318;52.406;13.416;2024-03-23T02:16:14;100391.68;;;7.79;86.93
74790;BME280;63318;52.406;13.416;2024-03-23T02:18:44;100387.35;;;7.79;87.23
74790;BME280;63318;52.406;13.416;2024-03-23T02:21:15;100386.02;;;7.79;87.17
74790;BME280;63318;52.406;13.416;2024-03-23T02:23:45;100382.88;;;7.78;87.07
74790;BME280;63318;52.406;13.416;2024-03-23T02:26:15;100381.33;;;7.77;87.17
74790;BME280;63318;52.406;13.416;2024-03-23T02:28:45;100382.25;;;7.76;87.05
74790;BME280;63318;52.406;13.416;2024-03-23T02:31:15;100371.46;;;7.76;87.18
74790;BME280;63318;52.406;13.416;2024-03-23T02:33:45;100363.54;;;7.75;87.24
74790;BME280;63318;52.406;13.416;2024-03-23T02:36:15;100357.63;;;7.74;87.16
74790;BME280;63318;52.406;13.416;2024-03-23T02:38:45;100355.46;;;7.73;87.34
74790;BME280;63318;52.406;13.416;2024-03-23T02:41:15;100360.27;;;7.73;87.34
74790;BME280;63318;52.406;13.416;2024-03-23T02:43:51;100350.70;;;7.72;87.00
74790;BME280;63318;52.406;13.416;2024-03-23T02:46:21;100350.13;;;7.70;87.09
74790;BME280;63318;52.406;13.416;2024-03-23T02:48:51;100341.16;;;7.68;87.16
74790;BME280;63318;52.406;13.416;2024-03-23T02:51:21;100331.98;;;7.67;87.02
74790;BME280;63318;52.406;13.416;2024-03-23T02:53:52;100330.64;;;7.66;86.92
74790;BME280;63318;52.406;13.416;2024-03-23T02:56:22;100325.55;;;7.65;86.89
74790;BME280;63318;52.406;13.416;2024-03-23T02:58:52;100323.39;;;7.64;87.07
74790;BME280;63318;52.406;13.416;2024-03-23T03:01:22;100322.94;;;7.63;87.12
74790;BME280;63318;52.406;13.416;2024-03-23T03:03:52;100327.73;;;7.62;86.74
74790;BME280;63318;52.406;13.416;2024-03-23T03:06:25;100328.93;;;7.61;87.04
74790;BME280;63318;52.406;13.416;2024-03-23T03:08:55;100327.33;;;7.59;87.22
74790;BME280;63318;52.406;13.416;2024-03-23T03:11:25;100323.68;;;7.59;87.38
74790;BME280;63318;52.406;13.416;2024-03-23T03:13:55;100324.50;;;7.58;87.57
74790;BME280;63318;52.406;13.416;2024-03-23T03:16:25;100326.21;;;7.58;87.25
74790;BME280;63318;52.406;13.416;2024-03-23T03:18:55;100319.02;;;7.58;87.17
74790;BME280;63318;52.406;13.416;2024-03-23T03:21:25;100309.29;;;7.58;87.39
74790;BME280;63318;52.406;13.416;2024-03-23T03:23:56;100298.56;;;7.57;87.33
74790;BME280;63318;52.406;13.416;2024-03-23T03:26:26;100298.52;;;7.57;87.69
74790;BME280;63318;52.406;13.416;2024-03-23T03:28:56;100297.67;;;7.57;87.43
74790;BME280;63318;52.406;13.416;2024-03-23T03:31:26;100293.64;;;7.57;87.62
74790;BME280;63318;52.406;13.416;2024-03-23T03:33:56;100297.02;;;7.57;87.68
74790;BME280;63318;52.406;13.416;2024-03-23T03:36:26;100294.27;;;7.57;87.48
74790;BME280;63318;52.406;13.416;2024-03-23T03:38:56;100288.06;;;7.56;87.73
74790;BME280;63318;52.406;13.416;2024-03-23T03:41:26;100283.73;;;7.56;87.63
74790;BME280;63318;52.406;13.416;2024-03-23T03:43:56;100281.91;;;7.55;87.66
74790;BME280;63318;52.406;13.416;2024-03-23T03:46:30;100283.29;;;7.55;87.43
74790;BME280;63318;52.406;13.416;2024-03-23T03:49:00;100289.64;;;7.53;87.45
74790;BME280;63318;52.406;13.416;2024-03-23T03:51:30;100297.05;;;7.52;87.47
74790;BME280;63318;52.406;13.416;2024-03-23T03:54:00;100295.44;;;7.52;87.65
74790;BME280;63318;52.406;13.416;2024-03-23T03:56:30;100283.55;;;7.51;87.43
74790;BME280;63318;52.406;13.416;2024-03-23T03:59:00;100280.66;;;7.51;87.47
74790;BME280;63318;52.406;13.416;2024-03-23T04:01:30;100285.48;;;7.50;87.35
74790;BME280;63318;52.406;13.416;2024-03-23T04:04:00;100278.98;;;7.49;87.28
74790;BME280;63318;52.406;13.416;2024-03-23T04:06:30;100274.56;;;7.47;87.12
74790;BME280;63318;52.406;13.416;2024-03-23T04:09:02;100268.08;;;7.45;87.19
74790;BME280;63318;52.406;13.416;2024-03-23T04:11:32;100262.81;;;7.42;87.21
74790;BME280;63318;52.406;13.416;2024-03-23T04:14:02;100258.98;;;7.40;87.17
74790;BME280;63318;52.406;13.416;2024-03-23T04:16:36;100257.90;;;7.38;87.17
74790;BME280;63318;52.406;13.416;2024-03-23T04:19:06;100259.50;;;7.36;87.28
74790;BME280;63318;52.406;13.416;2024-03-23T04:21:37;100258.15;;;7.34;87.03
74790;BME280;63318;52.406;13.416;2024-03-23T04:24:07;100259.14;;;7.32;87.15
74790;BME280;63318;52.406;13.416;2024-03-23T04:26:42;100257.41;;;7.30;87.11
74790;BME280;63318;52.406;13.416;2024-03-23T04:29:14;100256.63;;;7.29;86.95
74790;BME280;63318;52.406;13.416;2024-03-23T04:31:45;100262.23;;;7.25;86.96
74790;BME280;63318;52.406;13.416;2024-03-23T04:34:15;100262.20;;;7.22;86.98
74790;BME280;63318;52.406;13.416;2024-03-23T04:36:45;100264.23;;;7.20;86.98
74790;BME280;63318;52.406;13.416;2024-03-23T04:39:15;100262.27;;;7.17;87.07
74790;BME280;63318;52.406;13.416;2024-03-23T04:41:46;100257.17;;;7.16;87.23
74790;BME280;63318;52.406;13.416;2024-03-23T04:44:16;100252.43;;;7.15;86.94
74790;BME280;63318;52.406;13.416;2024-03-23T04:46:45;100241.58;;;7.13;87.46
74790;BME280;63318;52.406;13.416;2024-03-23T04:49:16;100237.65;;;7.11;87.20
74790;BME280;63318;52.406;13.416;2024-03-23T04:51:46;100234.48;;;7.09;87.10
74790;BME280;63318;52.406;13.416;2024-03-23T04:54:16;100231.81;;;7.07;87.32
74790;BME280;63318;52.406;13.416;2024-03-23T04:56:47;100223.59;;;7.06;87.04
74790;BME280;63318;52.406;13.416;2024-03-23T04:59:17;100220.59;;;7.05;87.29
74790;BME280;63318;52.406;13.416;2024-03-23T05:01:47;100215.10;;;7.04;87.32
74790;BME280;63318;52.406;13.416;2024-03-23T05:04:17;100219.68;;;7.03;87.40
74790;BME280;63318;52.406;13.416;2024-03-23T05:06:47;100219.67;;;7.02;87.25
74790;BME280;63318;52.406;13.416;2024-03-23T05:09:17;100216.25;;;7.00;86.98
74790;BME280;63318;52.406;13.416;2024-03-23T05:11:47;100219.16;;;6.98;87.17
74790;BME280;63318;52.406;13.416;2024-03-23T05:14:17;100221.24;;;6.97;87.16
74790;BME280;63318;52.406;13.416;2024-03-23T05:16:47;100217.75;;;6.96;87.35
74790;BME280;63318;52.406;13.416;2024-03-23T05:19:18;100216.85;;;6.95;87.14
74790;BME280;63318;52.406;13.416;2024-03-23T05:21:48;100215.30;;;6.93;87.31
74790;BME280;63318;52.406;13.416;2024-03-23T05:24:18;100218.04;;;6.91;87.20
74790;BME280;63318;52.406;13.416;2024-03-23T05:26:47;100214.34;;;6.90;87.19
74790;BME280;63318;52.406;13.416;2024-03-23T05:29:17;100205.28;;;6.89;87.26
74790;BME280;63318;52.406;13.416;2024-03-23T05:31:51;100201.95;;;6.87;87.06
74790;BME280;63318;52.406;13.416;2024-03-23T05:34:21;100195.09;;;6.87;87.33
74790;BME280;63318;52.406;13.416;2024-03-23T05:36:52;100192.64;;;6.86;87.38
74790;BME280;63318;52.406;13.416;2024-03-23T05:39:22;100189.94;;;6.85;87.42
74790;BME280;63318;52.406;13.416;2024-03-23T05:41:52;100183.81;;;6.86;87.47
74790;BME280;63318;52.406;13.416;2024-03-23T05:44:22;100177.02;;;6.86;87.48
74790;BME280;63318;52.406;13.416;2024-03-23T05:46:52;100171.89;;;6.85;87.66
74790;BME280;63318;52.406;13.416;2024-03-23T05:49:22;100164.33;;;6.86;87.57
74790;BME280;63318;52.406;13.416;2024-03-23T05:51:54;100168.14;;;6.87;87.77
74790;BME280;63318;52.406;13.416;2024-03-23T05:54:24;100165.89;;;6.87;87.79
74790;BME280;63318;52.406;13.416;2024-03-23T05:56:57;100166.67;;;6.88;87.71
74790;BME280;63318;52.406;13.416;2024-03-23T05:59:26;100161.80;;;6.88;87.83
74790;BME280;63318;52.406;13.416;2024-03-23T06:01:57;100159.81;;;6.88;87.91
74790;BME280;63318;52.406;13.416;2024-03-23T06:04:28;100145.52;;;6.87;87.63
74790;BME280;63318;52.406;13.416;2024-03-23T06:06:58;100140.66;;;6.87;87.76
74790;BME280;63318;52.406;13.416;2024-03-23T06:09:28;100132.93;;;6.87;87.68
74790;BME280;63318;52.406;13.416;2024-03-23T06:12:01;100127.84;;;6.88;87.80
74790;BME280;63318;52.406;13.416;2024-03-23T06:14:31;100124.09;;;6.88;87.69
74790;BME280;63318;52.406;13.416;2024-03-23T06:17:02;100116.77;;;6.89;87.64
74790;BME280;63318;52.406;13.416;2024-03-23T06:19:32;100115.21;;;6.90;87.53
74790;BME280;63318;52.406;13.416;2024-03-23T06:22:02;100104.52;;;6.91;87.56
74790;BME280;63318;52.406;13.416;2024-03-23T06:24:35;100105.46;;;6.91;87.38
74790;BME280;63318;52.406;13.416;2024-03-23T06:27:06;100115.35;;;6.93;87.85
74790;BME280;63318;52.406;13.416;2024-03-23T06:29:36;100117.02;;;6.95;87.72
74790;BME280;63318;52.406;13.416;2024-03-23T06:32:07;100113.34;;;6.97;87.98
74790;BME280;63318;52.406;13.416;2024-03-23T06:34:37;100113.41;;;6.99;87.86
74790;BME280;63318;52.406;13.416;2024-03-23T06:37:07;100104.70;;;7.02;87.72
74790;BME280;63318;52.406;13.416;2024-03-23T06:39:38;100095.42;;;7.03;87.50
74790;BME280;63318;52.406;13.416;2024-03-23T06:42:08;100089.23;;;7.04;87.70
74790;BME280;63318;52.406;13.416;2024-03-23T06:44:39;100086.70;;;7.04;87.52
74790;BME280;63318;52.406;13.416;2024-03-23T06:47:09;100095.21;;;7.05;87.60
74790;BME280;63318;52.406;13.416;2024-03-23T06:49:39;100096.39;;;7.06;87.74
74790;BME280;63318;52.406;13.416;2024-03-23T06:52:09;100098.42;;;7.07;87.69
74790;BME280;63318;52.406;13.416;2024-03-23T06:54:38;100092.75;;;7.08;87.79
74790;BME280;63318;52.406;13.416;2024-03-23T06:57:08;100087.00;;;7.09;87.84
74790;BME280;63318;52.406;13.416;2024-03-23T06:59:38;100084.81;;;7.11;87.93
74790;BME280;63318;52.406;13.416;2024-03-23T07:02:08;100081.52;;;7.13;87.70
74790;BME280;63318;52.406;13.416;2024-03-23T07:04:38;100082.13;;;7.15;87.69
74790;BME280;63318;52.406;13.416;2024-03-23T07:07:09;100076.92;;;7.16;87.31
74790;BME280;63318;52.406;13.416;2024-03-23T07:09:39;100074.23;;;7.16;87.33
74790;BME280;63318;52.406;13.416;2024-03-23T07:12:09;100072.13;;;7.15;87.15
74790;BME280;63318;52.406;13.416;2024-03-23T07:14:39;100079.30;;;7.14;87.01
74790;BME280;63318;52.406;13.416;2024-03-23T07:17:10;100076.48;;;7.13;87.30
74790;BME280;63318;52.406;13.416;2024-03-23T07:19:40;100076.71;;;7.13;86.90
74790;BME280;63318;52.406;13.416;2024-03-23T07:22:10;100073.94;;;7.13;87.42
74790;BME280;63318;52.406;13.416;2024-03-23T07:24:41;100071.91;;;7.13;87.08
74790;BME280;63318;52.406;13.416;2024-03-23T07:27:12;100065.88;;;7.13;87.25
74790;BME280;63318;52.406;13.416;2024-03-23T07:29:42;100065.27;;;7.13;87.28
74790;BME280;63318;52.406;13.416;2024-03-23T07:32:12;100066.55;;;7.14;87.14
74790;BME280;63318;52.406;13.416;2024-03-23T07:34:42;100071.58;;;7.16;87.29
74790;BME280;63318;52.406;13.416;2024-03-23T07:37:13;100066.28;;;7.17;87.25
74790;BME280;63318;52.406;13.416;2024-03-23T07:39:43;100065.62;;;7.18;87.33
74790;BME280;63318;52.406;13.416;2024-03-23T07:42:13;100068.95;;;7.21;87.62
74790;BME280;63318;52.406;13.416;2024-03-23T07:44:43;100061.62;;;7.23;87.20
74790;BME280;63318;52.406;13.416;2024-03-23T07:47:15;100064.73;;;7.24;87.32
74790;BME280;63318;52.406;13.416;2024-03-23T07:49:45;100066.54;;;7.26;87.40
74790;BME280;63318;52.406;13.416;2024-03-23T07:52:15;100065.39;;;7.27;87.23
74790;BME280;63318;52.406;13.416;2024-03-23T07:54:45;100062.41;;;7.28;87.09
74790;BME280;63318;52.406;13.416;2024-03-23T07:57:16;100060.86;;;7.29;87.04
74790;BME280;63318;52.406;13.416;2024-03-23T07:59:46;100054.84;;;7.28;87.02
74790;BME280;63318;52.406;13.416;2024-03-23T08:02:15;100053.13;;;7.28;86.77
74790;BME280;63318;52.406;13.416;2024-03-23T08:04:46;100052.95;;;7.25;86.85
74790;BME280;63318;52.406;13.416;2024-03-23T08:07:16;100047.10;;;7.24;86.90
74790;BME280;63318;52.406;13.416;2024-03-23T08:09:46;100041.34;;;7.23;86.67
74790;BME280;63318;52.406;13.416;2024-03-23T08:12:16;100039.23;;;7.23;86.98
74790;BME280;63318;52.406;13.416;2024-03-23T08:14:46;100034.71;;;7.22;86.96
74790;BME280;63318;52.406;13.416;2024-03-23T08:17:16;100025.43;;;7.22;86.76
74790;BME280;63318;52.406;13.416;2024-03-23T08:19:46;100024.60;;;7.21;86.96
74790;BME280;63318;52.406;13.416;2024-03-23T08:22:16;100020.66;;;7.21;86.95
74790;BME280;63318;52.406;13.416;2024-03-23T08:24:46;100023.14;;;7.20;86.56
74790;BME280;63318;52.406;13.416;2024-03-23T08:27:16;100026.46;;;7.17;86.53
74790;BME280;63318;52.406;13.416;2024-03-23T08:29:47;100023.35;;;7.16;86.68
74790;BME280;63318;52.406;13.416;2024-03-23T08:32:17;100021.31;;;7.15;86.47
74790;BME280;63318;52.406;13.416;2024-03-23T08:34:48;100023.40;;;7.13;86.40
74790;BME280;63318;52.406;13.416;2024-03-23T08:37:18;100022.69;;;7.11;86.31
74790;BME280;63318;52.406;13.416;2024-03-23T08:39:48;100019.19;;;7.09;86.44
74790;BME280;63318;52.406;13.416;2024-03-23T08:42:21;100016.80;;;7.08;86.68
74790;BME280;63318;52.406;13.416;2024-03-23T08:44:51;100017.45;;;7.09;86.70
74790;BME280;63318;52.406;13.416;2024-03-23T08:47:21;100018.67;;;7.08;86.57
74790;BME280;63318;52.406;13.416;2024-03-23T08:49:52;100020.61;;;7.07;86.42
74790;BME280;63318;52.406;13.416;2024-03-23T08:52:22;100021.15;;;7.05;86.07
74790;BME280;63318;52.406;13.416;2024-03-23T08:54:54;100025.66;;;7.01;86.31
74790;BME280;63318;52.406;13.416;2024-03-23T08:57:26;100021.77;;;6.96;86.03
74790;BME280;63318;52.406;13.416;2024-03-23T08:59:56;100011.72;;;6.93;86.00
74790;BME280;63318;52.406;13.416;2024-03-23T09:02:26;100014.48;;;6.87;85.66
74790;BME280;63318;52.406;13.416;2024-03-23T09:04:57;100021.02;;;6.79;85.54
74790;BME280;63318;52.406;13.416;2024-03-23T09:07:33;100027.36;;;6.69;85.70
74790;BME280;63318;52.406;13.416;2024-03-23T09:10:04;100029.02;;;6.62;85.88
74790;BME280;63318;52.406;13.416;2024-03-23T09:12:34;100033.62;;;6.57;85.78
74790;BME280;63318;52.406;13.416;2024-03-23T09:15:04;100041.35;;;6.50;85.74
74790;BME280;63318;52.406;13.416;2024-03-23T09:17:35;100037.70;;;6.41;85.50
74790;BME280;63318;52.406;13.416;2024-03-23T09:20:06;100035.11;;;6.35;85.50
74790;BME280;63318;52.406;13.416;2024-03-23T09:22:36;100037.81;;;6.28;85.54
74790;BME280;63318;52.406;13.416;2024-03-23T09:25:07;100044.23;;;6.23;85.77
74790;BME280;63318;52.406;13.416;2024-03-23T09:27:37;100044.73;;;6.18;85.45
74790;BME280;63318;52.406;13.416;2024-03-23T09:30:09;100047.67;;;6.13;85.68
74790;BME280;63318;52.406;13.416;2024-03-23T09:32:39;100048.02;;;6.08;85.55
74790;BME280;63318;52.406;13.416;2024-03-23T09:35:10;100052.98;;;6.02;85.57
74790;BME280;63318;52.406;13.416;2024-03-23T09:37:40;100059.64;;;5.96;85.65
74790;BME280;63318;52.406;13.416;2024-03-23T09:40:12;100061.81;;;5.92;85.54
74790;BME280;63318;52.406;13.416;2024-03-23T09:42:43;100068.13;;;5.89;85.67
74790;BME280;63318;52.406;13.416;2024-03-23T09:45:23;100066.61;;;5.86;85.69
74790;BME280;63318;52.406;13.416;2024-03-23T09:47:57;100071.75;;;5.81;85.51
74790;BME280;63318;52.406;13.416;2024-03-23T09:50:27;100079.17;;;5.74;85.50
74790;BME280;63318;52.406;13.416;2024-03-23T09:52:57;100085.73;;;5.69;85.45
74790;BME280;63318;52.406;13.416;2024-03-23T09:55:27;100095.77;;;5.65;85.62
74790;BME280;63318;52.406;13.416;2024-03-23T09:57:57;100104.27;;;5.62;85.63
74790;BME280;63318;52.406;13.416;2024-03-23T10:00:27;100114.16;;;5.59;85.66
74790;BME280;63318;52.406;13.416;2024-03-23T10:02:57;100125.88;;;5.58;85.60
74790;BME280;63318;52.406;13.416;2024-03-23T10:05:32;100131.66;;;5.58;85.71
74790;BME280;63318;52.406;13.416;2024-03-23T10:08:18;100142.80;;;5.55;85.49
74790;BME280;63318;52.406;13.416;2024-03-23T10:10:48;100138.61;;;5.51;85.60
74790;BME280;63318;52.406;13.416;2024-03-23T10:13:35;100136.42;;;5.47;85.53
74790;BME280;63318;52.406;13.416;2024-03-23T10:16:06;100138.16;;;5.45;85.75
74790;BME280;63318;52.406;13.416;2024-03-23T10:18:39;100144.59;;;5.44;85.87
74790;BME280;63318;52.406;13.416;2024-03-23T10:21:11;100143.48;;;5.42;86.00
74790;BME280;63318;52.406;13.416;2024-03-23T10:23:42;100141.44;;;5.43;85.82
74790;BME280;63318;52.406;13.416;2024-03-23T10:26:18;100138.35;;;5.42;85.72
74790;BME280;63318;52.406;13.416;2024-03-23T10:28:55;100144.58;;;5.43;86.06
74790;BME280;63318;52.406;13.416;2024-03-23T10:31:28;100151.88;;;5.41;85.68
74790;BME280;63318;52.406;13.416;2024-03-23T10:33:59;100154.17;;;5.39;85.50
74790;BME280;63318;52.406;13.416;2024-03-23T10:36:32;100160.89;;;5.36;85.64
74790;BME280;63318;52.406;13.416;2024-03-23T10:39:08;100164.35;;;5.34;85.67
74790;BME280;63318;52.406;13.416;2024-03-23T10:41:41;100169.90;;;5.34;85.63
74790;BME280;63318;52.406;13.416;2024-03-23T10:44:11;100169.16;;;5.33;85.55
74790;BME280;63318;52.406;13.416;2024-03-23T10:46:42;100174.05;;;5.31;85.64
74790;BME280;63318;52.406;13.416;2024-03-23T10:49:12;100173.64;;;5.29;85.69
74790;BME280;63318;52.406;13.416;2024-03-23T10:51:42;100178.09;;;5.29;85.85
74790;BME280;63318;52.406;13.416;2024-03-23T10:54:12;100184.62;;;5.31;86.08
74790;BME280;63318;52.406;13.416;2024-03-23T10:56:43;100186.55;;;5.32;86.11
74790;BME280;63318;52.406;13.416;2024-03-23T10:59:13;100187.58;;;5.34;85.90
74790;BME280;63318;52.406;13.416;2024-03-23T11:01:56;100193.80;;;5.34;85.80
74790;BME280;63318;52.406;13.416;2024-03-23T11:04:34;100196.01;;;5.35;85.85
74790;BME280;63318;52.406;13.416;2024-03-23T11:07:31;100195.10;;;5.37;86.09
74790;BME280;63318;52.406;13.416;2024-03-23T11:10:01;100190.82;;;5.37;85.92
74790;BME280;63318;52.406;13.416;2024-03-23T11:12:32;100190.97;;;5.39;85.96
74790;BME280;63318;52.406;13.416;2024-03-23T11:15:05;100190.15;;;5.40;85.82
74790;BME280;63318;52.406;13.416;2024-03-23T11:17:36;100191.11;;;5.42;85.74
74790;BME280;63318;52.406;13.416;2024-03-23T11:20:09;100191.29;;;5.46;85.81
74790;BME280;63318;52.406;13.416;2024-03-23T11:22:42;100184.67;;;5.51;85.91
74790;BME280;63318;52.406;13.416;2024-03-23T11:25:18;100187.20;;;5.57;86.26
74790;BME280;63318;52.406;13.416;2024-03-23T11:27:51;100190.06;;;5.62;86.23
74790;BME280;63318;52.406;13.416;2024-03-23T11:30:23;100193.33;;;5.67;85.96
74790;BME280;63318;52.406;13.416;2024-03-23T11:32:55;100190.94;;;5.70;85.89
74790;BME280;63318;52.406;13.416;2024-03-23T11:35:30;100195.45;;;5.74;86.14
74790;BME280;63318;52.406;13.416;2024-03-23T11:38:07;100195.84;;;5.78;86.05
74790;BME280;63318;52.406;13.416;2024-03-23T11:40:38;100196.44;;;5.82;86.09
74790;BME280;63318;52.406;13.416;2024-03-23T11:43:11;100199.34;;;5.86;85.64
74790;BME280;63318;52.406;13.416;2024-03-23T11:45:44;100200.10;;;5.90;86.19
74790;BME280;63318;52.406;13.416;2024-03-23T11:48:16;100212.02;;;5.96;85.77
74790;BME280;63318;52.406;13.416;2024-03-23T11:50:49;100216.00;;;6.00;85.92
74790;BME280;63318;52.406;13.416;2024-03-23T11:53:21;100212.95;;;6.04;85.66
74790;BME280;63318;52.406;13.416;2024-03-23T11:55:53;100212.25;;;6.10;85.72
74790;BME280;63318;52.406;13.416;2024-03-23T11:58:24;100209.33;;;6.15;85.49
74790;BME280;63318;52.406;13.416;2024-03-23T12:00:58;100210.59;;;6.14;85.02
74790;BME280;63318;52.406;13.416;2024-03-23T12:03:29;100213.96;;;6.10;84.90
74790;BME280;63318;52.406;13.416;2024-03-23T12:06:03;100207.61;;;6.09;84.74
74790;BME280;63318;52.406;13.416;2024-03-23T12:08:35;100203.40;;;6.07;84.81
74790;BME280;63318;52.406;13.416;2024-03-23T12:11:08;100198.27;;;6.07;84.86
74790;BME280;63318;52.406;13.416;2024-03-23T12:13:40;100198.53;;;6.11;85.30
74790;BME280;63318;52.406;13.416;2024-03-23T12:16:12;100198.09;;;6.16;85.25
74790;BME280;63318;52.406;13.416;2024-03-23T12:18:44;100198.14;;;6.21;85.38
74790;BME280;63318;52.406;13.416;2024-03-23T12:21:15;100199.40;;;6.25;85.33
74790;BME280;63318;52.406;13.416;2024-03-23T12:23:46;100194.02;;;6.28;85.16
74790;BME280;63318;52.406;13.416;2024-03-23T12:26:17;100193.58;;;6.31;85.12
74790;BME280;63318;52.406;13.416;2024-03-23T12:28:48;100197.61;;;6.33;84.98
74790;BME280;63318;52.406;13.416;2024-03-23T12:31:19;100202.33;;;6.35;84.95
74790;BME280;63318;52.406;13.416;2024-03-23T12:33:49;100201.27;;;6.39;85.02
74790;BME280;63318;52.406;13.416;2024-03-23T12:36:19;100199.40;;;6.40;84.56
74790;BME280;63318;52.406;13.416;2024-03-23T12:38:49;100196.24;;;6.40;84.84
74790;BME280;63318;52.406;13.416;2024-03-23T12:41:20;100199.14;;;6.42;84.89
74790;BME280;63318;52.406;13.416;2024-03-23T12:43:50;100198.95;;;6.44;84.59
74790;BME280;63318;52.406;13.416;2024-03-23T12:46:20;100196.10;;;6.47;84.65
74790;BME280;63318;52.406;13.416;2024-03-23T12:48:52;100199.14;;;6.48;84.69
74790;BME280;63318;52.406;13.416;2024-03-23T12:51:22;100198.29;;;6.50;84.62
74790;BME280;63318;52.406;13.416;2024-03-23T12:53:52;100198.05;;;6.54;84.77
74790;BME280;63318;52.406;13.416;2024-03-23T12:56:23;100196.52;;;6.54;84.55
74790;BME280;63318;52.406;13.416;2024-03-23T12:58:53;100192.54;;;6.55;84.17
74790;BME280;63318;52.406;13.416;2024-03-23T13:01:25;100189.06;;;6.55;84.46
74790;BME280;63318;52.406;13.416;2024-03-23T13:03:55;100190.97;;;6.58;84.42
74790;BME280;63318;52.406;13.416;2024-03-23T13:06:25;100183.40;;;6.64;84.53
74790;BME280;63318;52.406;13.416;2024-03-23T13:08:57;100185.66;;;6.68;84.28
74790;BME280;63318;52.406;13.416;2024-03-23T13:11:27;100182.98;;;6.71;84.42
74790;BME280;63318;52.406;13.416;2024-03-23T13:13:57;100178.77;;;6.78;84.34
74790;BME280;63318;52.406;13.416;2024-03-23T13:16:27;100177.96;;;6.85;84.19
74790;BME280;63318;52.406;13.416;2024-03-23T13:18:58;100178.35;;;6.94;84.28
74790;BME280;63318;52.406;13.416;2024-03-23T13:21:30;100178.77;;;7.04;84.27
74790;BME280;63318;52.406;13.416;2024-03-23T13:24:00;100177.23;;;7.20;83.84
74790;BME280;63318;52.406;13.416;2024-03-23T13:26:30;100173.80;;;7.38;83.80
74790;BME280;63318;52.406;13.416;2024-03-23T13:29:01;100161.36;;;7.54;83.94
74790;BME280;63318;52.406;13.416;2024-03-23T13:31:31;100163.00;;;7.73;83.79
74790;BME280;63318;52.406;13.416;2024-03-23T13:34:07;100164.50;;;7.92;83.70
74790;BME280;63318;52.406;13.416;2024-03-23T13:36:37;100168.92;;;8.08;83.24
74790;BME280;63318;52.406;13.416;2024-03-23T13:39:08;100162.00;;;8.23;82.99
74790;BME280;63318;52.406;13.416;2024-03-23T13:41:41;100168.14;;;8.33;82.12
74790;BME280;63318;52.406;13.416;2024-03-23T13:44:13;100166.55;;;8.44;82.40
74790;BME280;63318;52.406;13.416;2024-03-23T13:46:43;100163.20;;;8.57;82.48
74790;BME280;63318;52.406;13.416;2024-03-23T13:49:26;100162.92;;;8.67;81.53
74790;BME280;63318;52.406;13.416;2024-03-23T13:51:57;100162.38;;;8.74;80.28
74790;BME280;63318;52.406;13.416;2024-03-23T13:54:28;100162.33;;;8.78;80.72
74790;BME280;63318;52.406;13.416;2024-03-23T13:56:58;100158.73;;;8.86;80.81
74790;BME280;63318;52.406;13.416;2024-03-23T13:59:28;100152.63;;;8.94;81.01
74790;BME280;63318;52.406;13.416;2024-03-23T14:01:59;100157.73;;;9.01;80.93
74790;BME280;63318;52.406;13.416;2024-03-23T14:04:29;100158.54;;;9.08;80.62